Accueil
METAR-TAF:

METAR-TAF

Aéroports :

Aéroport international de Chengdu-Shuangliu

Chengdu, Chine

latitude: 30-40N, longitude: 104-01E, altitude: 508 m

Observation

Le bulletin a été fait il y a 1 heure et 22 minutes, à 04:00 UTC
Vent 6 kt de nord, variant entre nord/nord-ouest et est/nord-est
Température 13°C
Humidité 77%
Pression 1011 hPa
Visibilité 10 km ou plus
Nuages épars à une hauteur de 1100 ft
Nuages fragmentés à une hauteur de 2300 ft

METAR: ZUUU 230400Z 01003MPS 340V060 9999 SCT011 BKN023 13/09 Q1011 NOSIG

Heure: 13:22 (05:22 UTC)

Prévision

Le bulletin a été fait il y a 8 heures et 9 minutes, à 21:13 UTC
Prévision valable du 23 à 00 UTC au 23 à 24 UTC
Vent 6 kt de nord/nord-est
Visibilité: 6000 m
Nuages épars à une hauteur de 4000 ft

TAF: ZUUU 222113Z 2300/2324 02003MPS 6000 SCT040 TX17/2307Z TN11/2300Z

Observations et prévisions météorologiques de plus de 4000 aéroports (messages METAR et TAF).

Les stations disponibles sont représentées par des disques jaunes et rouges sur la carte.

Passer la souris dessus pour voir le nom de la station.

Cliquer dessus pour voir les observations et prévisions météorologiques.

Pour changer de carte: cliquez sur les boutons verts avec une croix noire pour zoomer, sur le bouton vert avec un tiret pour effectuer un zoom arrière, ou sur les flèches vertes pour les cartes adjacentes.


METAR-TAF: